Ninde, Virginia
Current Conditions -  °F | °C
As of 8:56 AM on Saturday 25 Oct 2014 (Local Time) from KNYG Reporting Station
Clear Clear  
Wind Chill: 42°   Ceiling: Unl
Heat Index: 46°   Visibility: 10mi
Dew Point: 41°   Wind: 7mph
Humidity: 83%   Direction: 300°WNW
Pressure: 29.99"   Gusts: NA
Location:  38.27°N, 77.06°W
Report Text: KNYG 251256Z 30006KT 10SM CLR 08/05 A2999 RMK AO2 SLP156 T00780050 $
Loading
Personal Weather Stations






























Interactive Weather Map
Tropical Storm Tracking
New forecast layout! Learn more

10-Day Weather Forecast

Advertisements
Track Severe Weather on mobile